createdAt,value
2017-12-04T00:02:51.239Z,21.37
2017-12-04T00:07:35.268Z,23.23
2017-12-04T00:12:20.087Z,21.33
2017-12-04T00:17:06.977Z,23.60
2017-12-04T00:21:51.037Z,23.10
2017-12-04T00:26:35.078Z,19.47
2017-12-04T00:31:19.143Z,23.17
2017-12-04T00:36:08.407Z,20.00
2017-12-04T00:40:52.459Z,21.43
2017-12-04T00:45:37.124Z,22.30
2017-12-04T00:50:21.194Z,20.63
2017-12-04T00:55:06.669Z,21.20
2017-12-04T00:59:50.835Z,21.07
2017-12-04T01:04:35.144Z,20.10
2017-12-04T01:09:19.288Z,22.13
2017-12-04T01:14:06.454Z,21.83
2017-12-04T01:18:50.524Z,21.63
2017-12-04T01:23:35.810Z,26.23
2017-12-04T01:28:20.237Z,23.33
2017-12-04T01:33:07.181Z,22.67
2017-12-04T01:37:51.249Z,20.97
2017-12-04T01:42:35.315Z,21.80
2017-12-04T01:47:19.322Z,22.80
2017-12-04T01:52:08.526Z,25.50
2017-12-04T01:56:53.320Z,20.67
2017-12-04T02:01:37.893Z,23.23
2017-12-04T02:06:21.946Z,23.60
2017-12-04T02:11:07.124Z,19.23
2017-12-04T02:15:51.155Z,17.90
2017-12-04T02:20:35.178Z,17.33
2017-12-04T02:25:19.266Z,16.03
2017-12-04T02:30:07.358Z,18.30
2017-12-04T02:34:51.379Z,17.87
2017-12-04T02:39:36.224Z,18.90
2017-12-04T02:44:20.295Z,19.93
2017-12-04T02:49:07.840Z,21.80
2017-12-04T02:53:51.917Z,18.73
2017-12-04T02:58:35.992Z,20.80
2017-12-04T03:03:20.390Z,22.70
2017-12-04T03:08:07.502Z,17.83
2017-12-04T03:12:51.695Z,21.00
2017-12-04T03:17:35.858Z,21.50
2017-12-04T03:22:20.197Z,23.00
2017-12-04T03:27:08.064Z,20.63
2017-12-04T03:31:52.123Z,21.43
2017-12-04T03:36:36.247Z,21.20
2017-12-04T03:41:20.318Z,22.03
2017-12-04T03:46:06.847Z,22.20
2017-12-04T03:50:50.875Z,18.60
2017-12-04T03:55:35.118Z,16.13
2017-12-04T04:00:19.934Z,15.43
2017-12-04T04:05:07.438Z,17.03
2017-12-04T04:09:51.446Z,16.17
2017-12-04T04:14:36.078Z,19.00
2017-12-04T04:19:20.105Z,21.73
2017-12-04T04:24:07.287Z,20.00
2017-12-04T04:28:51.662Z,18.93
2017-12-04T04:33:35.651Z,18.83
2017-12-04T04:38:24.987Z,19.07
2017-12-04T04:43:09.335Z,20.57
2017-12-04T04:53:27.544Z,15.80
2017-12-04T04:58:12.399Z,16.33
2017-12-04T05:02:57.133Z,16.37
2017-12-04T05:07:47.237Z,16.97
2017-12-04T05:12:31.496Z,17.97
2017-12-04T05:17:16.432Z,16.47
2017-12-04T05:22:13.468Z,17.77
2017-12-04T05:27:11.471Z,23.27
2017-12-04T05:32:09.804Z,18.47
2017-12-04T05:36:59.324Z,20.23
2017-12-04T05:41:55.971Z,25.47
2017-12-04T05:46:41.489Z,22.97
2017-12-04T05:51:26.019Z,25.00
2017-12-04T06:01:56.184Z,23.33
2017-12-04T06:12:07.183Z,18.73
2017-12-04T06:16:51.367Z,22.07
2017-12-04T06:21:46.837Z,18.97
2017-12-04T06:26:30.858Z,25.93
2017-12-04T06:31:15.139Z,18.90
2017-12-04T06:36:31.041Z,17.10
2017-12-04T07:00:57.825Z,19.43
2017-12-04T07:06:09.422Z,20.60
2017-12-04T07:10:53.559Z,18.47
2017-12-04T07:15:56.833Z,18.43
2017-12-04T07:20:42.690Z,15.90
2017-12-04T07:25:40.130Z,14.87
2017-12-04T07:30:30.862Z,13.63
2017-12-04T07:35:14.923Z,12.50
2017-12-04T07:39:59.504Z,14.03
2017-12-04T07:44:43.499Z,13.80
2017-12-04T07:49:29.342Z,14.13
2017-12-04T07:54:18.188Z,13.17
2017-12-04T07:59:06.440Z,15.00
2017-12-04T08:03:55.239Z,15.43
2017-12-04T08:08:42.063Z,17.63
2017-12-04T08:13:28.640Z,15.03
2017-12-04T08:18:13.733Z,15.53
2017-12-04T08:22:57.753Z,14.17
2017-12-04T08:27:41.783Z,14.20
2017-12-04T08:32:38.972Z,11.47
2017-12-04T08:37:23.874Z,9.03
2017-12-04T08:42:07.923Z,11.90
2017-12-04T08:46:52.054Z,8.93
2017-12-04T08:51:37.430Z,11.87
2017-12-04T08:57:20.970Z,11.27
2017-12-04T09:02:07.379Z,9.20
2017-12-04T09:06:51.540Z,11.40
2017-12-04T09:11:36.579Z,12.70
2017-12-04T09:16:23.295Z,18.47
2017-12-04T09:21:09.935Z,21.27
2017-12-04T09:25:54.815Z,16.90
2017-12-04T09:30:38.833Z,16.70
2017-12-04T09:35:22.849Z,14.10
2017-12-04T09:40:10.243Z,12.53
2017-12-04T09:44:58.968Z,11.43
2017-12-04T09:49:43.495Z,9.20
2017-12-04T09:54:33.065Z,7.50
2017-12-04T09:59:29.959Z,9.20
2017-12-04T10:17:06.598Z,10.33
2017-12-04T10:21:59.425Z,10.40
2017-12-04T10:26:43.497Z,12.80
2017-12-04T10:31:38.071Z,12.57
2017-12-04T10:36:44.866Z,9.23
2017-12-04T10:47:06.977Z,8.07
2017-12-04T10:52:12.711Z,10.67
2017-12-04T10:56:56.734Z,9.83
2017-12-04T11:01:40.810Z,9.00
2017-12-04T11:06:25.594Z,9.53
2017-12-04T11:11:09.755Z,11.07
2017-12-04T11:15:54.599Z,8.00
2017-12-04T11:20:38.597Z,18.07
2017-12-04T11:25:22.756Z,11.13
2017-12-04T11:30:07.017Z,9.70
2017-12-04T11:34:51.902Z,10.77
2017-12-04T11:39:35.967Z,12.20
2017-12-04T11:44:20.133Z,11.07
2017-12-04T11:49:04.368Z,13.30
2017-12-04T11:53:48.511Z,12.13
2017-12-04T11:58:32.697Z,18.33
2017-12-04T12:03:16.815Z,14.07
2017-12-04T12:08:00.985Z,14.37
2017-12-04T12:12:45.154Z,13.27
2017-12-04T12:17:29.381Z,16.27
2017-12-04T12:22:13.563Z,13.13
2017-12-04T12:26:58.165Z,10.80
2017-12-04T12:31:42.208Z,16.83
2017-12-04T12:36:26.258Z,15.73
2017-12-04T12:41:10.397Z,9.57
2017-12-04T12:45:57.366Z,13.07
2017-12-04T12:50:46.343Z,12.97
2017-12-04T12:55:30.446Z,10.47
2017-12-04T13:00:14.581Z,11.93
2017-12-04T13:04:58.642Z,12.40
2017-12-04T13:09:42.723Z,10.37
2017-12-04T13:14:26.800Z,10.40
2017-12-04T13:19:11.366Z,9.07
2017-12-04T13:23:56.187Z,6.20
2017-12-04T13:28:41.290Z,7.67
2017-12-04T13:36:49.652Z,6.93
2017-12-04T13:41:33.777Z,3.30
2017-12-04T13:46:19.859Z,5.23
2017-12-04T13:51:22.686Z,5.00
2017-12-04T13:57:53.507Z,7.27
2017-12-04T14:02:38.738Z,8.13
2017-12-04T14:07:25.913Z,8.03
2017-12-04T14:12:16.518Z,3.60
2017-12-04T14:17:04.172Z,5.37
2017-12-04T14:26:44.632Z,7.43
2017-12-04T14:31:37.612Z,5.33
2017-12-04T14:36:32.923Z,7.07
2017-12-04T14:41:20.664Z,6.73
2017-12-04T14:46:23.856Z,9.47
2017-12-04T14:51:08.879Z,3.67
2017-12-04T15:01:34.520Z,6.37
2017-12-04T15:06:21.299Z,3.43
2017-12-04T15:11:16.386Z,4.77
2017-12-04T15:16:07.127Z,6.07
2017-12-04T15:36:15.715Z,7.43
2017-12-04T15:41:09.482Z,7.20
2017-12-04T15:51:39.544Z,8.50
2017-12-04T15:56:32.340Z,6.77
2017-12-04T16:01:36.965Z,9.00
2017-12-04T16:06:46.040Z,9.77
2017-12-04T16:11:39.024Z,8.63
2017-12-04T16:16:27.133Z,7.73
2017-12-04T22:48:40.468Z,8.13
2017-12-04T22:53:24.819Z,11.33
2017-12-04T22:58:09.866Z,9.97
2017-12-04T23:02:53.934Z,5.00
2017-12-04T23:07:37.940Z,11.67
2017-12-04T23:12:23.065Z,8.17
2017-12-04T23:17:07.157Z,7.77
2017-12-04T23:21:51.234Z,6.37
2017-12-04T23:26:35.985Z,8.20
2017-12-04T23:31:20.112Z,7.90
2017-12-04T23:36:04.499Z,6.80
2017-12-04T23:40:48.676Z,11.07
2017-12-04T23:45:32.759Z,6.87
2017-12-04T23:50:16.829Z,7.83
2017-12-04T23:55:00.908Z,7.60
2017-12-04T23:59:44.940Z,7.90
